Gilgit Weather



Gilgit's Current Weather

Temprature -1.474o overcast clouds

overcast clouds

Rain: 0 %

Min Temprature-1.474o
Max Temprature-1.474o
Humidity60
Wind Speed0.07 m/h
Sun Rise05:22:39
Sun Set18:40:07
Current Time: 21-Apr-2019 05:13:33
Lat/Lon: 35.92, 74.31




Gilgit's Geo Location



Gilgit's Weather Forecast

Time Overall Temp Min Temp Max Temp Humidity Wind Speed Rain
21-Apr-2019 (Sun)
08:00:00 broken clouds 1.130 1.129 1.130 47 0.58 m/h 0 %
11:00:00 broken clouds 3.750 3.750 3.750 44 1.19 m/h 0 %
14:00:00 scattered clouds 6.150 6.150 6.150 41 1.8 m/h 0 %
17:00:00 scattered clouds 6.050 6.050 6.050 39 1.22 m/h 0 %
20:00:00 scattered clouds 2.850 2.850 2.850 49 1.73 m/h 0 %
23:00:00 few clouds 1.000 1.000 1.000 50 2.07 m/h 0 %
22-Apr-2019 (Mon)
02:00:00 broken clouds 0.470 0.470 0.470 52 1.04 m/h 0 %
05:00:00 broken clouds -0.926 -0.926 -0.926 54 0.81 m/h 0 %
08:00:00 broken clouds 2.206 2.206 2.206 39 0.87 m/h 0 %
11:00:00 scattered clouds 5.020 5.020 5.020 34 1.46 m/h 0 %
14:00:00 clear sky 7.315 7.315 7.315 33 2.13 m/h 0 %
17:00:00 clear sky 7.231 7.231 7.231 30 2.35 m/h 0 %
20:00:00 clear sky 4.050 4.050 4.050 36 2.45 m/h 0 %
23:00:00 clear sky 2.196 2.196 2.196 41 2.01 m/h 0 %
23-Apr-2019 (Tue)
02:00:00 clear sky 0.277 0.277 0.277 43 1.35 m/h 0 %
05:00:00 clear sky -0.704 -0.704 -0.704 41 0.23 m/h 0 %
08:00:00 clear sky 3.197 3.197 3.197 29 1.21 m/h 0 %
11:00:00 clear sky 6.750 6.750 6.750 26 2.49 m/h 0 %
14:00:00 few clouds 9.250 9.250 9.250 26 3.6 m/h 0 %
17:00:00 scattered clouds 8.750 8.750 8.750 30 3.63 m/h 0 %
20:00:00 broken clouds 5.528 5.528 5.528 45 3.44 m/h 0 %
23:00:00 broken clouds 4.550 4.550 4.550 53 3.39 m/h 0 %
24-Apr-2019 (Wed)
02:00:00 light snow 3.182 3.182 3.182 61 3.13 m/h 0 %
05:00:00 light snow 2.234 2.234 2.234 69 2.42 m/h 0 %
08:00:00 light snow 3.850 3.850 3.850 62 3.88 m/h 0 %
11:00:00 light snow 6.609 6.609 6.609 54 5.74 m/h 0 %
14:00:00 light snow 6.750 6.750 6.750 57 6.04 m/h 0 %
17:00:00 light snow 5.550 5.550 5.550 62 6.14 m/h 0 %
20:00:00 snow 3.555 3.555 3.555 72 5.05 m/h 0 %
23:00:00 light snow 2.845 2.845 2.845 74 4.35 m/h 0 %
25-Apr-2019 (Thu)
02:00:00 light snow 1.850 1.850 1.850 72 4.68 m/h 0 %
05:00:00 light rain 0.942 0.942 0.942 70 4.22 m/h 6 %
08:00:00 scattered clouds 3.720 3.720 3.720 54 4.28 m/h 0 %
11:00:00 scattered clouds 7.190 7.190 7.190 36 6.72 m/h 0 %
14:00:00 clear sky 8.050 8.050 8.050 33 7.63 m/h 0 %
17:00:00 clear sky 6.311 6.311 6.311 39 6.77 m/h 0 %
20:00:00 clear sky 2.125 2.125 2.125 52 5.63 m/h 0 %
23:00:00 scattered clouds 0.743 0.743 0.743 51 4.9 m/h 0 %
26-Apr-2019 (Fri)
02:00:00 clear sky -0.368 -0.368 -0.368 51 3.63 m/h 0 %
05:00:00 scattered clouds -0.874 -0.874 -0.874 52 2.62 m/h 0 %

Famous Cities (60)